Time;durP1;ratioP1;P1;durP2;ratioP2;P2;SDS_P1;SDS_P2;PMS_P1;PMS_P2;Temp;Humidity;BMP_temperature;BMP_pressure;BME280_temperature;BME280_humidity;BME280_pressure;Samples;Min_cycle;Max_cycle;Signal;HPM_P1;HPM_P2
2023/05/04 00:01:38;;;;;;;8.88;5.13;;;15.40;73.50;;;;;;4996323;28;20089;-70
2023/05/04 00:04:03;;;;;;;8.63;5.53;;;15.30;73.50;;;;;;4995986;28;20026;-72
2023/05/04 00:06:29;;;;;;;10.15;5.82;;;15.30;73.60;;;;;;4995948;28;20081;-71
2023/05/04 00:08:54;;;;;;;8.90;5.47;;;15.30;73.60;;;;;;4996167;28;20391;-69
2023/05/04 00:11:21;;;;;;;8.63;4.80;;;15.30;73.60;;;;;;4995981;28;20105;-70
2023/05/04 00:13:46;;;;;;;9.90;5.63;;;15.30;74.30;;;;;;4995802;28;20042;-70
2023/05/04 00:16:12;;;;;;;8.88;5.53;;;15.30;74.40;;;;;;4995999;28;20022;-70
2023/05/04 00:18:38;;;;;;;9.48;5.55;;;15.30;74.00;;;;;;4995814;28;20026;-70
2023/05/04 00:21:04;;;;;;;7.68;5.40;;;15.30;74.00;;;;;;4995621;28;20026;-70
2023/05/04 00:23:29;;;;;;;10.32;5.90;;;15.20;74.00;;;;;;4995198;28;20476;-70
2023/05/04 00:25:57;;;;;;;10.13;6.40;;;15.20;74.10;;;;;;4995742;28;20033;-70
2023/05/04 00:28:23;;;;;;;11.15;5.25;;;15.20;74.30;;;;;;4995761;28;20373;-70
2023/05/04 00:30:48;;;;;;;7.55;6.07;;;15.10;74.30;;;;;;4995614;28;20508;-71
2023/05/04 00:33:14;;;;;;;11.35;6.07;;;15.20;74.40;;;;;;4995593;28;20049;-71
2023/05/04 00:35:40;;;;;;;10.00;5.90;;;15.20;74.30;;;;;;4995174;28;20077;-71
2023/05/04 00:38:05;;;;;;;7.57;6.20;;;15.10;74.40;;;;;;4995568;28;20034;-70
2023/05/04 00:40:31;;;;;;;10.35;5.72;;;15.10;74.60;;;;;;4995598;28;20026;-70
2023/05/04 00:42:57;;;;;;;11.02;6.32;;;15.10;74.60;;;;;;4995146;28;20360;-70
2023/05/04 00:45:22;;;;;;;12.50;5.68;;;15.00;74.70;;;;;;4995561;28;20101;-72
2023/05/04 00:47:48;;;;;;;10.55;6.00;;;15.00;74.80;;;;;;4994155;28;20033;-70
2023/05/04 00:50:14;;;;;;;7.38;5.72;;;15.00;74.90;;;;;;4995082;28;20064;-70
2023/05/04 00:52:42;;;;;;;12.57;6.30;;;15.00;75.00;;;;;;4995096;28;20444;-71
2023/05/04 00:55:09;;;;;;;11.02;6.10;;;15.00;74.80;;;;;;4995122;28;20554;-69
2023/05/04 00:57:35;;;;;;;10.45;6.03;;;15.00;74.90;;;;;;4995066;28;20033;-71
2023/05/04 01:00:01;;;;;;;11.00;6.15;;;14.90;75.10;;;;;;4995144;28;20388;-71
2023/05/04 01:02:27;;;;;;;9.57;6.70;;;14.90;75.20;;;;;;4995014;28;20030;-72
2023/05/04 01:04:52;;;;;;;9.82;6.45;;;14.90;75.20;;;;;;4994595;28;20029;-71
2023/05/04 01:07:32;;;;;;;9.13;6.13;;;14.90;75.20;;;;;;4995025;28;20030;-71
2023/05/04 01:10:03;;;;;;;9.00;6.03;;;14.90;75.40;;;;;;4995426;28;20018;-73
2023/05/04 01:12:43;;;;;;;10.02;5.90;;;14.90;75.30;;;;;;4995054;28;20034;-70
2023/05/04 01:15:10;;;;;;;12.80;6.85;;;14.90;75.50;;;;;;4994853;28;20521;-72
2023/05/04 01:17:35;;;;;;;11.60;6.28;;;14.90;75.50;;;;;;4994562;28;20507;-72
2023/05/04 01:20:02;;;;;;;8.05;5.80;;;14.90;75.70;;;;;;4994687;28;20023;-72
2023/05/04 01:22:28;;;;;;;10.68;6.72;;;14.90;75.70;;;;;;4994514;28;20084;-71
2023/05/04 01:24:54;;;;;;;9.50;6.15;;;14.80;75.70;;;;;;4994808;28;20113;-72
2023/05/04 01:27:22;;;;;;;12.75;6.68;;;14.90;75.80;;;;;;4994824;28;20408;-70
2023/05/04 01:29:55;;;;;;;11.57;6.43;;;14.80;75.90;;;;;;4994693;28;20026;-71
2023/05/04 01:32:22;;;;;;;8.05;6.05;;;14.80;76.10;;;;;;4994204;28;20029;-70
2023/05/04 01:34:48;;;;;;;9.00;6.25;;;14.80;76.10;;;;;;4994392;28;20402;-71
2023/05/04 01:37:14;;;;;;;11.43;6.43;;;14.80;76.20;;;;;;4994305;28;20514;-70
2023/05/04 01:39:40;;;;;;;10.90;5.90;;;14.70;76.30;;;;;;4994459;28;20113;-71
2023/05/04 01:42:06;;;;;;;9.63;5.72;;;14.70;76.40;;;;;;4994238;28;20097;-70
2023/05/04 01:44:32;;;;;;;11.35;6.45;;;14.70;76.50;;;;;;4994499;28;20105;-70
2023/05/04 01:46:57;;;;;;;10.25;6.30;;;14.70;76.50;;;;;;4994021;28;20034;-71
2023/05/04 01:49:23;;;;;;;8.50;5.30;;;14.60;76.50;;;;;;4992933;28;20081;-71
2023/05/04 01:51:49;;;;;;;9.98;6.18;;;14.70;76.60;;;;;;4994142;28;20520;-70
2023/05/04 01:54:15;;;;;;;11.00;6.25;;;14.60;76.50;;;;;;4994089;28;20476;-70
2023/05/04 01:56:41;;;;;;;9.45;6.30;;;14.70;76.50;;;;;;4992719;28;20022;-71
2023/05/04 01:59:06;;;;;;;9.82;6.10;;;14.70;76.50;;;;;;4993972;28;20113;-70
2023/05/04 02:01:32;;;;;;;8.90;6.22;;;14.70;76.50;;;;;;4993842;28;20085;-70
2023/05/04 02:03:57;;;;;;;7.30;6.03;;;14.70;76.60;;;;;;4993866;28;20030;-71
2023/05/04 02:06:23;;;;;;;11.35;5.97;;;14.70;76.70;;;;;;4993836;28;20034;-71
2023/05/04 02:08:50;;;;;;;9.60;6.38;;;14.60;76.70;;;;;;4993347;28;20030;-69
2023/05/04 02:11:15;;;;;;;10.48;6.45;;;14.60;76.80;;;;;;4994024;28;20026;-70
2023/05/04 02:13:41;;;;;;;11.27;6.72;;;14.60;77.00;;;;;;4993835;28;20041;-70
2023/05/04 02:16:07;;;;;;;10.05;6.55;;;14.60;77.10;;;;;;4993520;28;20511;-70
2023/05/04 02:18:33;;;;;;;11.68;6.82;;;14.60;77.10;;;;;;4993757;28;20026;-70
2023/05/04 02:20:58;;;;;;;12.57;6.68;;;14.50;77.10;;;;;;4994145;28;20061;-70
2023/05/04 02:23:24;;;;;;;11.70;7.07;;;14.50;77.30;;;;;;4992411;28;20058;-70
2023/05/04 02:25:50;;;;;;;15.95;7.32;;;14.50;77.30;;;;;;4993708;28;20101;-70
2023/05/04 02:28:16;;;;;;;8.85;6.80;;;14.50;77.40;;;;;;4993555;28;20033;-72
2023/05/04 02:30:42;;;;;;;12.48;7.50;;;14.50;77.30;;;;;;4993501;28;20026;-70
2023/05/04 02:33:07;;;;;;;10.57;6.55;;;14.50;77.40;;;;;;4993434;28;20046;-74
2023/05/04 02:35:33;;;;;;;12.10;6.95;;;14.40;77.50;;;;;;4993524;28;20054;-73
2023/05/04 02:37:59;;;;;;;13.55;7.18;;;14.40;77.50;;;;;;4993517;28;20035;-70
2023/05/04 02:40:25;;;;;;;10.95;7.22;;;14.40;77.70;;;;;;4993540;28;20438;-71
2023/05/04 02:42:51;;;;;;;10.38;6.68;;;14.40;77.70;;;;;;4993308;28;20022;-71
2023/05/04 02:45:17;;;;;;;14.50;8.00;;;14.40;77.80;;;;;;4993619;28;20430;-72
2023/05/04 02:47:42;;;;;;;10.25;7.53;;;14.40;77.80;;;;;;4993362;28;20041;-71
2023/05/04 02:50:08;;;;;;;9.90;6.18;;;14.40;78.00;;;;;;4993140;28;20025;-71
2023/05/04 02:52:34;;;;;;;11.20;6.45;;;14.40;77.80;;;;;;4993555;28;20548;-71
2023/05/04 02:55:00;;;;;;;11.15;7.32;;;14.40;77.80;;;;;;4993187;28;20038;-73
2023/05/04 02:57:26;;;;;;;10.50;7.03;;;14.40;77.90;;;;;;4993472;28;20076;-72
2023/05/04 02:59:52;;;;;;;9.25;6.53;;;14.30;78.00;;;;;;4993134;28;20146;-72
2023/05/04 03:02:17;;;;;;;11.25;6.75;;;14.20;78.10;;;;;;4993303;28;20033;-71
2023/05/04 03:04:43;;;;;;;10.43;6.45;;;14.20;78.30;;;;;;4993009;28;20034;-73
2023/05/04 03:07:08;;;;;;;12.52;7.10;;;14.20;78.30;;;;;;4993378;28;20494;-71
2023/05/04 03:09:34;;;;;;;9.95;7.05;;;14.20;78.40;;;;;;4992067;28;20391;-71
2023/05/04 03:12:01;;;;;;;12.63;7.07;;;14.20;78.40;;;;;;4993358;28;20116;-73
2023/05/04 03:14:27;;;;;;;8.43;6.55;;;14.10;78.40;;;;;;4992884;28;20038;-71
2023/05/04 03:16:52;;;;;;;12.27;6.57;;;14.20;78.60;;;;;;4993377;28;20027;-71
2023/05/04 03:19:20;;;;;;;13.25;6.97;;;14.10;78.70;;;;;;4993013;28;20031;-72
2023/05/04 03:21:46;;;;;;;10.98;6.97;;;14.10;78.70;;;;;;4995784;28;20372;-71
2023/05/04 03:24:11;;;;;;;10.80;7.35;;;14.00;78.90;;;;;;4996870;28;20412;-71
2023/05/04 03:26:37;;;;;;;9.52;6.85;;;14.00;78.90;;;;;;4996890;28;20037;-72
2023/05/04 03:29:03;;;;;;;10.77;6.70;;;14.00;78.90;;;;;;4996722;28;20069;-72
2023/05/04 03:31:29;;;;;;;8.48;6.50;;;14.00;79.20;;;;;;4996632;28;20031;-71
2023/05/04 03:33:54;;;;;;;11.00;6.93;;;14.00;79.10;;;;;;4996714;28;20034;-70
2023/05/04 03:36:20;;;;;;;12.02;6.75;;;14.00;79.10;;;;;;4996588;28;20379;-73
2023/05/04 03:38:45;;;;;;;11.18;6.53;;;13.90;79.20;;;;;;4996660;28;20396;-71
2023/05/04 03:41:11;;;;;;;10.52;7.05;;;13.90;79.20;;;;;;4995238;28;20033;-71
2023/05/04 03:43:37;;;;;;;10.07;7.25;;;13.90;80.00;;;;;;4996435;28;20042;-71
2023/05/04 03:46:03;;;;;;;11.90;7.70;;;13.90;80.00;;;;;;4996547;28;20527;-71
2023/05/04 03:48:29;;;;;;;8.52;7.00;;;13.90;79.40;;;;;;4996532;28;20026;-71
2023/05/04 03:50:54;;;;;;;10.52;7.68;;;14.00;79.40;;;;;;4996323;28;20077;-71
2023/05/04 03:53:20;;;;;;;12.50;7.07;;;13.90;79.50;;;;;;4996304;28;20038;-71
2023/05/04 03:55:46;;;;;;;12.10;7.88;;;13.80;79.60;;;;;;4996470;28;20030;-71
2023/05/04 03:58:11;;;;;;;13.05;7.60;;;13.80;79.60;;;;;;4996418;28;20532;-72
2023/05/04 04:00:37;;;;;;;13.10;7.40;;;13.80;79.70;;;;;;4996171;28;20030;-71
2023/05/04 04:03:02;;;;;;;12.75;7.63;;;13.90;79.80;;;;;;4994818;28;20065;-70
2023/05/04 04:05:28;;;;;;;15.50;7.90;;;13.90;79.70;;;;;;4996296;28;20038;-71
2023/05/04 04:07:54;;;;;;;11.98;6.82;;;13.80;79.70;;;;;;4996346;28;20041;-72
2023/05/04 04:10:19;;;;;;;15.57;7.88;;;13.80;79.70;;;;;;4996112;28;20534;-70
2023/05/04 04:12:45;;;;;;;12.43;8.70;;;13.80;79.80;;;;;;4995607;28;20022;-70
2023/05/04 04:15:11;;;;;;;11.02;7.88;;;13.80;79.90;;;;;;4996059;28;20042;-71
2023/05/04 04:17:36;;;;;;;11.75;7.63;;;13.80;80.00;;;;;;4995914;28;20397;-70
2023/05/04 04:20:02;;;;;;;14.27;6.55;;;13.80;79.90;;;;;;4996038;28;20404;-70
2023/05/04 04:22:28;;;;;;;9.57;6.53;;;13.70;81.10;;;;;;4995642;28;20023;-70
2023/05/04 04:24:53;;;;;;;9.02;5.68;;;13.70;81.50;;;;;;4994524;28;20469;-71
2023/05/04 04:27:19;;;;;;;14.07;7.32;;;13.70;81.40;;;;;;4995499;28;20031;-71
2023/05/04 04:29:45;;;;;;;9.63;6.18;;;13.70;81.20;;;;;;4995788;28;20097;-71
2023/05/04 04:32:10;;;;;;;10.70;7.22;;;13.70;81.40;;;;;;4993871;28;20587;-71
2023/05/04 04:34:36;;;;;;;12.20;6.97;;;13.70;81.50;;;;;;4995548;28;20380;-71
2023/05/04 04:37:01;;;;;;;11.95;6.93;;;13.70;81.40;;;;;;4995330;28;20044;-68
2023/05/04 04:39:27;;;;;;;8.45;7.05;;;13.70;81.50;;;;;;4995727;28;20030;-71
2023/05/04 04:41:52;;;;;;;15.73;7.35;;;13.70;81.60;;;;;;4995163;28;20061;-71
2023/05/04 04:44:19;;;;;;;8.13;6.80;;;13.60;81.70;;;;;;4995994;28;20034;-71
2023/05/04 04:46:46;;;;;;;11.10;7.70;;;13.70;81.60;;;;;;4995256;28;20049;-69
2023/05/04 04:49:11;;;;;;;9.27;6.43;;;13.70;81.70;;;;;;4994803;28;20053;-71
2023/05/04 04:51:37;;;;;;;8.10;6.78;;;13.70;81.90;;;;;;4983676;28;20060;-73
2023/05/04 04:54:03;;;;;;;11.50;6.88;;;13.70;81.90;;;;;;4975892;28;20059;-72
2023/05/04 04:56:29;;;;;;;10.57;7.28;;;13.70;81.90;;;;;;4986090;28;20093;-71
2023/05/04 04:58:54;;;;;;;9.95;7.07;;;13.70;81.80;;;;;;4995097;28;20109;-71
2023/05/04 05:01:20;;;;;;;11.75;6.82;;;13.70;82.00;;;;;;4994908;28;20030;-71
2023/05/04 05:03:46;;;;;;;9.70;6.60;;;13.70;81.90;;;;;;4995212;28;20023;-71
2023/05/04 05:06:12;;;;;;;9.90;6.70;;;13.70;82.10;;;;;;4995134;28;20026;-71
2023/05/04 05:08:39;;;;;;;9.95;7.10;;;13.70;82.00;;;;;;4994567;28;20081;-69
2023/05/04 05:11:05;;;;;;;11.40;7.07;;;13.70;82.00;;;;;;4976314;28;20187;-69
2023/05/04 05:13:31;;;;;;;10.77;6.70;;;13.80;81.90;;;;;;4975351;28;20146;-69
2023/05/04 05:15:56;;;;;;;16.50;6.38;;;13.80;81.90;;;;;;4975469;28;20023;-69
2023/05/04 05:18:23;;;;;;;9.57;7.32;;;13.80;82.20;;;;;;4975386;28;20029;-69
2023/05/04 05:20:49;;;;;;;11.85;7.65;;;13.80;81.70;;;;;;4976699;28;20503;-68
2023/05/04 05:23:15;;;;;;;9.63;6.65;;;13.70;81.40;;;;;;4984846;28;20035;-69
2023/05/04 05:25:42;;;;;;;10.02;6.57;;;13.60;82.00;;;;;;4987074;28;20034;-69
2023/05/04 05:28:08;;;;;;;14.90;6.95;;;13.50;82.10;;;;;;4992193;28;20034;-69
2023/05/04 05:30:34;;;;;;;12.60;7.93;;;13.50;82.20;;;;;;4992162;28;20384;-71
2023/05/04 05:33:00;;;;;;;11.00;7.50;;;13.60;82.20;;;;;;4991290;28;20030;-73
2023/05/04 05:35:26;;;;;;;13.68;8.10;;;13.70;82.10;;;;;;4992071;28;20038;-70
2023/05/04 05:37:51;;;;;;;13.23;7.85;;;13.60;82.20;;;;;;4991953;28;20088;-68
2023/05/04 05:40:18;;;;;;;14.10;7.60;;;13.60;82.30;;;;;;4987847;28;20492;-67
2023/05/04 05:42:44;;;;;;;12.70;7.10;;;13.60;82.40;;;;;;4991436;28;20061;-63
2023/05/04 05:45:10;;;;;;;14.75;8.02;;;13.40;82.60;;;;;;4991016;28;20027;-63
2023/05/04 05:47:36;;;;;;;12.85;7.25;;;13.50;82.80;;;;;;4994201;28;20018;-66
2023/05/04 05:50:06;;;;;;;14.80;7.22;;;13.40;82.70;;;;;;4997515;28;20543;-65
2023/05/04 05:52:31;;;;;;;12.85;7.88;;;13.50;82.60;;;;;;4993220;28;20033;-69
2023/05/04 05:54:57;;;;;;;11.60;7.85;;;13.60;82.60;;;;;;4990631;28;20046;-67
2023/05/04 05:57:22;;;;;;;10.38;7.55;;;13.60;82.60;;;;;;4992628;28;20033;-72
2023/05/04 05:59:48;;;;;;;14.70;7.60;;;13.60;82.50;;;;;;4993066;28;20062;-71
2023/05/04 06:02:14;;;;;;;14.00;7.57;;;13.70;82.20;;;;;;4991336;28;20522;-65
2023/05/04 06:04:40;;;;;;;14.18;7.60;;;13.90;82.20;;;;;;4989660;28;20026;-64
2023/05/04 06:07:06;;;;;;;12.85;6.90;;;14.00;81.60;;;;;;4994065;28;20018;-66
2023/05/04 06:09:32;;;;;;;11.90;7.90;;;14.20;81.50;;;;;;5001512;28;20372;-66
2023/05/04 06:11:58;;;;;;;18.00;7.03;;;14.20;80.90;;;;;;5006335;28;20108;-69
2023/05/04 06:14:23;;;;;;;14.55;7.82;;;14.20;80.90;;;;;;5013071;28;20116;-69
2023/05/04 06:16:49;;;;;;;13.63;7.45;;;14.20;81.00;;;;;;5011872;28;20022;-67
2023/05/04 06:19:15;;;;;;;14.60;7.70;;;14.20;81.10;;;;;;5012627;28;20033;-73
2023/05/04 06:21:40;;;;;;;10.60;7.47;;;14.30;81.00;;;;;;4997187;28;20468;-72
2023/05/04 06:24:06;;;;;;;9.93;7.00;;;14.30;80.80;;;;;;4991660;28;20435;-77
2023/05/04 06:26:31;;;;;;;17.02;7.50;;;14.30;80.80;;;;;;4991813;28;20030;-69
2023/05/04 06:28:57;;;;;;;13.65;7.70;;;14.40;81.00;;;;;;4992523;28;20033;-71
2023/05/04 06:31:23;;;;;;;10.75;6.80;;;14.40;80.70;;;;;;4993180;28;20482;-70
2023/05/04 06:33:51;;;;;;;12.57;7.30;;;14.40;80.70;;;;;;4992862;28;20042;-71
2023/05/04 06:36:17;;;;;;;14.55;6.95;;;14.50;80.80;;;;;;4989531;28;20073;-73
2023/05/04 06:38:42;;;;;;;12.60;6.55;;;14.60;81.00;;;;;;4992479;28;20038;-71
2023/05/04 06:41:08;;;;;;;11.00;7.40;;;14.60;80.50;;;;;;4993213;28;20019;-71
2023/05/04 06:43:34;;;;;;;14.27;7.38;;;14.70;80.50;;;;;;4993388;28;20058;-78
2023/05/04 06:46:03;;;;;;;8.20;6.32;;;14.80;80.20;;;;;;4993615;28;20026;-71
2023/05/04 06:48:29;;;;;;;11.60;6.65;;;14.80;80.10;;;;;;4993521;28;20030;-76
2023/05/04 06:50:56;;;;;;;10.82;7.47;;;14.80;80.00;;;;;;4992417;28;20026;-74
2023/05/04 06:53:22;;;;;;;14.32;6.78;;;14.80;79.90;;;;;;4992130;28;20023;-75
2023/05/04 06:55:47;;;;;;;12.30;6.57;;;14.80;80.00;;;;;;4993579;28;20118;-71
2023/05/04 06:58:20;;;;;;;15.75;6.70;;;14.80;80.10;;;;;;4997337;28;20110;-76
2023/05/04 07:00:46;;;;;;;12.68;6.85;;;14.90;79.90;;;;;;4998225;28;20041;-72
2023/05/04 07:03:12;;;;;;;9.23;6.75;;;14.90;79.80;;;;;;5000538;28;20105;-71
2023/05/04 07:05:38;;;;;;;8.68;6.72;;;15.00;79.70;;;;;;4996836;28;20471;-73
2023/05/04 07:08:04;;;;;;;10.82;6.97;;;15.10;79.80;;;;;;4997500;28;20022;-70
2023/05/04 07:10:29;;;;;;;12.93;7.35;;;15.10;79.50;;;;;;4999017;28;20026;-71
2023/05/04 07:12:55;;;;;;;10.68;7.10;;;15.10;79.60;;;;;;4996831;28;20026;-74
2023/05/04 07:15:20;;;;;;;11.73;7.40;;;15.20;79.60;;;;;;4997113;28;20369;-72
2023/05/04 07:17:47;;;;;;;13.43;6.72;;;15.30;79.40;;;;;;4996872;28;20018;-73
2023/05/04 07:20:14;;;;;;;14.13;6.57;;;15.30;79.10;;;;;;4992068;28;20104;-80
2023/05/04 07:22:40;;;;;;;11.18;7.15;;;15.40;79.00;;;;;;4991444;28;20026;-75
2023/05/04 07:25:06;;;;;;;12.32;6.93;;;15.50;79.10;;;;;;4996711;28;20105;-79
2023/05/04 07:27:33;;;;;;;9.02;6.30;;;15.50;79.00;;;;;;4996028;28;20018;-73
2023/05/04 07:30:00;;;;;;;8.90;6.30;;;15.60;79.00;;;;;;5002664;28;20029;-75
2023/05/04 07:32:26;;;;;;;10.75;6.95;;;15.60;79.00;;;;;;5000988;28;20101;-80
2023/05/04 07:34:52;;;;;;;12.13;6.55;;;15.70;78.60;;;;;;4996408;28;20092;-81
2023/05/04 07:37:17;;;;;;;8.27;6.20;;;15.80;78.40;;;;;;4993329;28;20035;-76
2023/05/04 07:39:43;;;;;;;9.57;6.00;;;15.90;78.60;;;;;;4996057;28;20029;-72
2023/05/04 07:42:12;;;;;;;10.40;7.15;;;15.90;78.50;;;;;;5006776;28;20372;-78
2023/05/04 07:44:38;;;;;;;11.63;6.65;;;16.00;78.60;;;;;;4994423;28;20023;-76
2023/05/04 07:47:04;;;;;;;8.75;6.35;;;16.00;79.00;;;;;;4995749;28;20101;-76
2023/05/04 07:49:29;;;;;;;10.80;6.20;;;16.10;78.60;;;;;;4995937;28;20058;-76
2023/05/04 07:51:55;;;;;;;10.52;6.45;;;16.20;78.50;;;;;;4996122;28;20024;-74
2023/05/04 07:54:21;;;;;;;7.80;6.40;;;16.20;78.30;;;;;;4994822;28;20488;-72
2023/05/04 07:56:46;;;;;;;9.75;6.30;;;16.30;78.40;;;;;;4993199;28;20034;-74
2023/05/04 07:59:12;;;;;;;11.50;6.20;;;16.30;78.00;;;;;;4986509;28;20506;-76
2023/05/04 08:01:37;;;;;;;11.27;6.07;;;16.40;78.70;;;;;;4994380;28;20033;-73
2023/05/04 08:04:03;;;;;;;13.63;5.82;;;16.50;78.00;;;;;;4995489;28;20034;-75
2023/05/04 08:06:29;;;;;;;9.05;6.00;;;16.50;77.60;;;;;;4995275;28;20383;-73
2023/05/04 08:08:54;;;;;;;12.65;5.72;;;16.50;77.60;;;;;;4996018;28;20106;-72
2023/05/04 08:11:20;;;;;;;8.70;6.57;;;16.60;77.50;;;;;;4995517;28;20384;-76
2023/05/04 08:13:47;;;;;;;8.45;5.75;;;16.70;76.50;;;;;;4993967;28;20069;-75
2023/05/04 08:16:12;;;;;;;7.20;5.30;;;16.80;76.70;;;;;;5010920;28;20037;-72
2023/05/04 08:18:38;;;;;;;11.50;5.40;;;16.80;77.00;;;;;;4993585;28;20023;-74
2023/05/04 08:21:04;;;;;;;8.52;5.72;;;16.90;76.60;;;;;;4995686;28;20026;-71
2023/05/04 08:23:31;;;;;;;8.95;5.30;;;17.00;76.60;;;;;;4995910;28;20386;-71
2023/05/04 08:25:56;;;;;;;11.18;5.30;;;17.00;76.80;;;;;;4995708;28;20034;-71
2023/05/04 08:28:22;;;;;;;11.45;4.82;;;17.00;76.90;;;;;;4980438;28;20027;-74
2023/05/04 08:30:48;;;;;;;7.85;4.70;;;17.10;75.70;;;;;;4975882;28;20511;-74
2023/05/04 08:33:13;;;;;;;10.05;5.22;;;17.10;75.90;;;;;;4976054;28;20033;-71
2023/05/04 08:35:39;;;;;;;8.25;5.05;;;17.10;76.00;;;;;;4976477;28;20069;-73
2023/05/04 08:38:04;;;;;;;8.85;5.07;;;17.10;76.10;;;;;;4976089;28;20077;-72
2023/05/04 08:40:31;;;;;;;7.07;4.32;;;17.20;76.30;;;;;;4976300;28;20026;-78
2023/05/04 08:42:57;;;;;;;9.85;5.32;;;17.20;76.60;;;;;;4975842;28;20489;-77
2023/05/04 08:45:24;;;;;;;8.02;4.63;;;17.20;76.20;;;;;;4976251;28;20030;-76
2023/05/04 08:47:50;;;;;;;10.43;4.45;;;17.30;76.70;;;;;;4976531;28;20038;-71
2023/05/04 08:50:16;;;;;;;7.97;5.05;;;17.30;75.60;;;;;;4975779;28;20069;-79
2023/05/04 08:52:46;;;;;;;9.05;4.78;;;17.40;75.20;;;;;;4975729;28;20119;-75
2023/05/04 08:55:12;;;;;;;6.32;4.78;;;17.50;74.80;;;;;;4975799;28;20384;-73
2023/05/04 08:57:42;;;;;;;6.35;3.95;;;17.50;74.80;;;;;;4975953;28;20053;-72
2023/05/04 09:00:10;;;;;;;7.70;4.15;;;17.60;74.10;;;;;;4980547;28;20165;-72
2023/05/04 09:02:36;;;;;;;7.35;4.25;;;17.50;74.10;;;;;;4974100;28;20018;-72
2023/05/04 09:05:03;;;;;;;5.95;3.10;;;17.50;74.90;;;;;;4976357;28;20037;-73
2023/05/04 09:07:28;;;;;;;8.18;4.88;;;17.40;76.10;;;;;;4994937;28;20076;-74
2023/05/04 09:09:55;;;;;;;9.88;4.07;;;17.40;76.00;;;;;;4994931;28;20026;-73
2023/05/04 09:12:21;;;;;;;6.20;3.42;;;17.50;76.40;;;;;;4982553;28;20428;-73
2023/05/04 09:14:47;;;;;;;7.30;4.10;;;17.50;76.90;;;;;;4975312;28;20580;-73
2023/05/04 09:17:16;;;;;;;7.63;4.70;;;17.40;77.50;;;;;;4975221;28;20023;-73
2023/05/04 09:19:43;;;;;;;9.05;4.95;;;17.60;76.80;;;;;;4986712;28;20542;-71
2023/05/04 09:22:18;;;;;;;8.35;4.95;;;17.60;76.40;;;;;;4992478;28;20065;-72
2023/05/04 09:24:45;;;;;;;11.02;5.30;;;17.70;76.30;;;;;;4993821;28;20030;-70
2023/05/04 09:27:12;;;;;;;7.63;5.20;;;17.70;76.10;;;;;;4994227;28;20092;-73
2023/05/04 09:29:39;;;;;;;12.02;5.28;;;17.80;75.70;;;;;;4989234;28;20499;-72
2023/05/04 09:32:11;;;;;;;7.53;4.72;;;17.80;76.30;;;;;;4988803;28;20034;-69
2023/05/04 09:34:45;;;;;;;8.07;5.30;;;17.80;75.60;;;;;;4993721;28;20100;-70
2023/05/04 09:37:10;;;;;;;7.05;4.88;;;17.80;76.00;;;;;;4994369;28;20034;-70
2023/05/04 09:39:36;;;;;;;6.05;4.40;;;17.90;75.70;;;;;;4993662;28;20409;-71
2023/05/04 09:42:03;;;;;;;10.05;4.57;;;17.90;76.20;;;;;;4993500;28;20037;-70
2023/05/04 09:44:29;;;;;;;11.75;5.47;;;17.90;77.10;;;;;;4990316;28;20489;-74
2023/05/04 09:46:58;;;;;;;8.85;5.15;;;17.90;77.30;;;;;;4993479;28;21606;-69
2023/05/04 09:49:34;;;;;;;7.28;5.45;;;17.90;77.60;;;;;;4993556;28;20022;-69
2023/05/04 09:52:01;;;;;;;9.93;5.40;;;17.90;77.30;;;;;;4993203;28;20121;-69
2023/05/04 09:54:37;;;;;;;7.32;5.18;;;17.90;77.30;;;;;;4990511;28;20031;-69
2023/05/04 09:57:12;;;;;;;7.68;6.00;;;18.10;76.70;;;;;;4992792;28;20118;-70
2023/05/04 09:59:39;;;;;;;8.25;5.07;;;18.10;76.10;;;;;;4992236;28;20105;-70
2023/05/04 10:02:08;;;;;;;7.38;4.65;;;18.10;76.30;;;;;;4991928;28;20531;-71
2023/05/04 10:04:35;;;;;;;6.00;4.60;;;18.10;77.10;;;;;;4990190;28;20037;-70
2023/05/04 10:07:03;;;;;;;7.93;4.72;;;18.10;77.50;;;;;;4991401;28;20365;-69
2023/05/04 10:09:30;;;;;;;6.93;3.97;;;18.10;77.60;;;;;;4984021;28;20039;-67
2023/05/04 10:12:00;;;;;;;6.97;5.53;;;18.00;77.30;;;;;;4991616;28;20026;-67
2023/05/04 10:14:32;;;;;;;7.07;5.53;;;18.10;77.30;;;;;;4990285;28;20030;-67
2023/05/04 10:17:36;;;;;;;10.70;4.93;;;18.10;77.20;;;;;;4989271;28;20113;-68
2023/05/04 10:20:25;;;;;;;6.40;5.15;;;18.10;77.10;;;;;;4987418;28;20022;-69
2023/05/04 10:23:09;;;;;;;7.25;5.38;;;18.20;76.60;;;;;;4991580;28;20455;-67
2023/05/04 10:25:47;;;;;;;5.07;3.13;;;18.20;76.50;;;;;;4992401;28;20030;-68
2023/05/04 10:28:21;;;;;;;10.75;5.93;;;18.20;77.50;;;;;;4984023;28;20023;-69
2023/05/04 10:30:47;;;;;;;8.80;5.75;;;18.30;77.00;;;;;;4991246;28;20033;-67
2023/05/04 10:33:13;;;;;;;9.52;6.15;;;18.30;76.90;;;;;;4992624;28;20022;-67
2023/05/04 10:35:52;;;;;;;6.82;5.40;;;18.30;76.70;;;;;;4992494;28;20038;-67
2023/05/04 10:38:18;;;;;;;7.90;5.28;;;18.30;76.60;;;;;;4993109;28;20042;-68
2023/05/04 10:40:47;;;;;;;4.25;3.67;;;18.40;76.20;;;;;;4992863;28;20022;-67
2023/05/04 10:43:24;;;;;;;4.63;3.05;;;18.40;77.20;;;;;;4992533;28;20026;-67
2023/05/04 10:45:50;;;;;;;5.10;3.80;;;18.40;77.40;;;;;;4992213;28;20028;-67
2023/05/04 10:48:16;;;;;;;6.97;5.15;;;18.30;77.80;;;;;;4992318;28;20400;-67
2023/05/04 10:50:47;;;;;;;5.65;5.03;;;18.40;77.60;;;;;;4992401;28;20023;-68
2023/05/04 10:53:14;;;;;;;10.45;4.50;;;18.40;77.40;;;;;;4992804;28;20050;-68
2023/05/04 10:55:42;;;;;;;7.90;3.85;;;18.40;77.30;;;;;;4992524;28;20057;-68
2023/05/04 10:58:09;;;;;;;6.18;3.58;;;18.40;77.50;;;;;;4992500;28;20030;-68
2023/05/04 11:00:40;;;;;;;5.20;2.30;;;18.40;78.00;;;;;;4991630;28;20026;-69
2023/05/04 11:03:06;;;;;;;3.72;2.30;;;18.40;78.10;;;;;;4992756;28;20779;-69
2023/05/04 11:05:42;;;;;;;5.97;2.75;;;18.40;78.20;;;;;;4992181;28;20030;-67
2023/05/04 11:08:18;;;;;;;8.27;2.85;;;18.40;78.10;;;;;;4992736;28;20480;-69
2023/05/04 11:10:59;;;;;;;5.80;2.83;;;18.50;77.60;;;;;;4992402;28;20023;-67
2023/05/04 11:13:25;;;;;;;5.47;3.83;;;18.50;78.00;;;;;;4992016;28;20030;-67
2023/05/04 11:15:51;;;;;;;7.00;3.05;;;18.50;76.50;;;;;;4992113;28;20391;-69
2023/05/04 11:18:30;;;;;;;5.43;3.83;;;18.60;77.60;;;;;;4991987;28;20495;-70
2023/05/04 11:20:56;;;;;;;6.95;4.38;;;18.70;76.20;;;;;;4992064;28;20460;-69
2023/05/04 11:23:22;;;;;;;4.50;4.10;;;18.70;75.50;;;;;;4991912;28;20488;-68
2023/05/04 11:25:48;;;;;;;5.95;4.75;;;18.70;75.10;;;;;;4992605;28;20082;-69
2023/05/04 11:28:14;;;;;;;4.40;2.50;;;18.80;75.40;;;;;;4992293;28;20026;-67
2023/05/04 11:30:41;;;;;;;4.88;2.30;;;18.80;76.50;;;;;;4992299;28;20472;-68
2023/05/04 11:33:11;;;;;;;5.32;3.70;;;18.70;77.40;;;;;;4991874;28;20027;-66
2023/05/04 11:35:37;;;;;;;5.28;2.33;;;18.70;77.10;;;;;;4987561;28;20137;-67
2023/05/04 11:38:03;;;;;;;8.20;3.75;;;18.70;77.10;;;;;;4986850;28;20042;-66
2023/05/04 11:40:29;;;;;;;5.80;3.78;;;19.00;72.80;;;;;;4992820;28;20089;-66
2023/05/04 11:42:56;;;;;;;5.45;3.92;;;19.10;73.40;;;;;;4995309;28;20030;-66
2023/05/04 11:45:33;;;;;;;5.10;3.35;;;19.20;73.10;;;;;;4996301;28;20015;-66
2023/05/04 11:48:00;;;;;;;7.88;2.35;;;19.10;74.10;;;;;;4996616;28;20113;-66
2023/05/04 11:50:27;;;;;;;3.25;2.20;;;19.10;75.10;;;;;;4982836;28;20018;-67
2023/05/04 11:53:10;;;;;;;9.20;4.25;;;19.00;75.60;;;;;;4977174;28;20023;-66
2023/05/04 11:55:36;;;;;;;6.40;3.25;;;19.10;73.80;;;;;;4976380;28;20103;-66
2023/05/04 11:58:09;;;;;;;4.72;3.50;;;19.10;74.80;;;;;;4988021;28;20050;-66
2023/05/04 12:00:45;;;;;;;5.93;4.80;;;19.10;74.60;;;;;;4996155;28;20439;-67
2023/05/04 12:03:16;;;;;;;12.70;4.10;;;19.40;73.10;;;;;;4977803;28;20027;-66
2023/05/04 12:05:53;;;;;;;12.68;3.90;;;19.40;72.90;;;;;;4987626;28;20113;-70
2023/05/04 12:08:33;;;;;;;7.50;2.38;;;19.30;73.10;;;;;;4996339;28;20034;-67
2023/05/04 12:11:08;;;;;;;3.90;2.28;;;19.30;74.60;;;;;;4995498;28;20027;-67
2023/05/04 12:13:35;;;;;;;6.28;3.58;;;19.20;74.90;;;;;;4996025;28;20121;-68
2023/05/04 12:16:11;;;;;;;7.85;4.43;;;19.30;73.80;;;;;;4995810;28;20026;-68
2023/05/04 12:18:37;;;;;;;7.35;4.47;;;19.40;72.00;;;;;;4995921;28;20045;-69
2023/05/04 12:21:17;;;;;;;6.55;3.35;;;19.50;72.10;;;;;;4995767;28;20073;-72
2023/05/04 12:23:43;;;;;;;3.13;2.10;;;19.40;73.70;;;;;;4996031;28;20022;-78
2023/05/04 12:26:09;;;;;;;7.70;3.55;;;19.40;74.60;;;;;;4995720;28;20025;-69
2023/05/04 12:28:35;;;;;;;4.22;3.15;;;19.40;73.90;;;;;;4995237;28;20026;-68
2023/05/04 12:31:03;;;;;;;8.15;3.55;;;19.40;74.30;;;;;;4995582;28;20096;-74
2023/05/04 12:33:29;;;;;;;6.72;3.17;;;19.40;74.00;;;;;;4994460;28;20093;-69
2023/05/04 12:35:54;;;;;;;6.10;4.47;;;19.40;74.10;;;;;;4995853;28;20034;-72
2023/05/04 12:38:21;;;;;;;4.05;2.03;;;19.50;72.30;;;;;;4995651;28;20468;-73
2023/05/04 12:40:46;;;;;;;6.47;2.97;;;19.60;74.80;;;;;;4995272;28;20385;-70